Flight Track Log - Related Links

Times and Time Zones

All times are in EDT time to prevent confusion due to time zone crossing. See the N1576C flight status page for this flight to view local times or setup timezone preferences in your user account.

Time Position Orientation Groundspeed Altitude Reporting Facility
EDT Latitude Longitude Course Direction KTS MPH feet Rate Location/Type
Wed 08:40:38 PM 29.6867 -82.2878 169° South 80 92 400  Level Jacksonville Center
Wed 08:41:20 PM 29.6764 -82.2856 169° South 68 78 800 641 Climbing Jacksonville Center
Wed 08:42:21 PM 29.6617 -82.2736 145° Southeast 71 82 1,500 639 Climbing Jacksonville Center
Wed 08:43:22 PM 29.6408 -82.2689 169° South 75 86 2,100 590 Climbing Jacksonville Center
Wed 08:44:23 PM 29.6219 -82.2667 174° South 70 81 2,700 590 Climbing Jacksonville Center
Wed 08:45:24 PM 29.6011 -82.2644 175° South 72 83 3,300 545 Climbing Jacksonville Center
Wed 08:46:24 PM 29.5822 -82.2622 174° South 70 81 3,800 496 Climbing Jacksonville Center
Wed 08:47:25 PM 29.5614 -82.2597 174° South 70 81 4,300 443 Climbing Jacksonville Center
Wed 08:48:26 PM 29.5425 -82.2600 181° South 68 78 4,700 393 Climbing Jacksonville Center
Wed 08:49:27 PM 29.5239 -82.2578 174° South 65 75 5,100 197 Climbing Jacksonville Center
Wed 08:50:28 PM 29.5008 -82.2531 170° South 83 96 5,100  Level Jacksonville Center
Wed 08:51:29 PM 29.4736 -82.2533 181° South 100 115 5,100  Level Jacksonville Center
Wed 08:52:36 PM 29.4422 -82.2511 176° South 98 113 5,100 -47 Level Jacksonville Center
Wed 08:53:36 PM 29.4153 -82.2489 176° South 97 112 5,000  Descending Jacksonville Center
Wed 08:54:37 PM 29.3881 -82.2492 181° South 93 107 5,100  Climbing Jacksonville Center
Wed 08:55:38 PM 29.3608 -82.2469 176° South 100 115 5,000  Descending Jacksonville Center
Wed 08:56:39 PM 29.3317 -82.2447 176° South 100 115 5,100 49 Climbing Jacksonville Center
Wed 08:57:40 PM 29.3044 -82.2425 176° South 100 115 5,100  Level Jacksonville Center
Wed 08:58:41 PM 29.2772 -82.2378 171° South 101 116 5,100  Level Jacksonville Center
Wed 08:59:41 PM 29.2481 -82.2333 172° South 102 117 5,100  Level Jacksonville Center
Wed 09:00:36 PM 29.2231 -82.2311 176° South 104 120 5,100  Level Jacksonville Center
Wed 09:01:37 PM 29.1917 -82.2314 180° South 106 122 5,100  Level Jacksonville Center
Wed 09:02:38 PM 29.1644 -82.2194 159° South 109 125 5,100  Level Jacksonville Center
Wed 09:03:39 PM 29.1394 -82.2008 147° Southeast 108 124 5,100  Level Jacksonville Center
Wed 09:04:40 PM 29.1142 -82.1819 147° Southeast 108 124 5,100  Level Jacksonville Center
Wed 09:05:40 PM 29.0892 -82.1583 140° Southeast 110 127 5,100 -50 Level Jacksonville Center
Wed 09:06:41 PM 29.0619 -82.1372 146° Southeast 108 124 5,000  Descending Jacksonville Center
Wed 09:08:29 PM 29.0167 -82.1000 144° Southeast 106 122 5,100 36 Climbing Orlando TRACON
Wed 09:09:29 PM 29.0000 -82.0833 139° Southeast 107 123 5,100  Level Orlando TRACON
Wed 09:10:29 PM 28.9667 -82.0667 156° South 110 127 5,100  Level Orlando TRACON
Wed 09:11:29 PM 28.9500 -82.0500 139° Southeast 107 123 5,100  Level Orlando TRACON
Wed 09:12:29 PM 28.9167 -82.0167 139° Southeast 107 123 5,100  Level Orlando TRACON
Wed 09:13:29 PM 28.9000 -82.0000 139° Southeast 103 119 5,100  Level Orlando TRACON
Wed 09:14:29 PM 28.8667 -81.9833 156° South 104 120 5,100  Level Orlando TRACON
Wed 09:15:30 PM 28.8500 -81.9667 139° Southeast 104 120 5,100  Level Orlando TRACON
Wed 09:16:30 PM 28.8333 -81.9500 139° Southeast 106 122 5,100  Level Orlando TRACON
Wed 09:17:24 PM 28.8000 -81.9333 156° South 103 119 5,100  Level Orlando TRACON
Wed 09:18:24 PM 28.7833 -81.9167 139° Southeast 101 116 5,100  Level Orlando TRACON
Wed 09:19:24 PM 28.7667 -81.9000 139° Southeast 98 113 5,100 -50 Level Orlando TRACON
Wed 09:20:24 PM 28.7333 -81.8833 156° South 102 117 5,000 -50 Descending Orlando TRACON
Wed 09:21:24 PM 28.7167 -81.8667 139° Southeast 101 116 5,000 50 Level Orlando TRACON
Wed 09:22:24 PM 28.6833 -81.8500 156° South 101 116 5,100 50 Climbing Orlando TRACON
Wed 09:23:24 PM 28.6667 -81.8333 139° Southeast 99 114 5,100 -50 Level Orlando TRACON
Wed 09:24:24 PM 28.6500 -81.8167 139° Southeast 101 116 5,000 -400 Descending Orlando TRACON
Wed 09:25:24 PM 28.6167 -81.7833 139° Southeast 119 137 4,300 -700 Descending Orlando TRACON
Wed 09:26:24 PM 28.6000 -81.7500 120° Southeast 119 137 3,600 -750 Descending Orlando TRACON
Wed 09:27:24 PM 28.5833 -81.7333 139° Southeast 111 128 2,800 -714 Descending Orlando TRACON
Wed 09:28:30 PM 28.5667 -81.7000 120° Southeast 98 113 2,100 -400 Descending Orlando TRACON
Wed 09:29:24 PM 28.5500 -81.6833 139° Southeast 86 99 2,000  Descending Orlando TRACON
Wed 09:30:25 PM 28.5333 -81.6667 139° Southeast 75 86 2,100 50 Climbing Orlando TRACON
Wed 09:31:25 PM 28.5167 -81.6500 139° Southeast 83 96 2,100 -50 Level Orlando TRACON
Wed 09:32:25 PM 28.5000 -81.6167 120° Southeast 89 102 2,000 -50 Descending Orlando TRACON
Wed 09:33:25 PM 28.4833 -81.6000 139° Southeast 88 101 2,000  Level Orlando TRACON
Wed 09:34:25 PM 28.4667 -81.5833 139° Southeast 88 101 2,000 48 Level Orlando TRACON
Wed 09:35:31 PM 28.4500 -81.5667 139° Southeast 82 94 2,100  Climbing Orlando TRACON
Wed 09:36:25 PM 28.4333 -81.5333 120° Southeast 85 98 2,000 -53 Descending Orlando TRACON
Wed 09:37:25 PM 28.4167 -81.5333 180° South 84 97 2,000 -200 Level Orlando TRACON
Wed 09:38:25 PM 28.4000 -81.5167 139° Southeast 90 104 1,600 -400 Descending Orlando TRACON
Wed 09:39:25 PM 28.3667 -81.5000 156° South 96 110 1,200 -200 Descending Orlando TRACON
Wed 09:40:25 PM 28.3500 -81.4833 139° Southeast 83 96 1,200 -100 Level Orlando TRACON
Wed 09:41:25 PM 28.3333 -81.4667 139° Southeast 86 99 1,000 -350 Descending Orlando TRACON
Wed 09:42:25 PM 28.3167 -81.4500 139° Southeast 86 99 500 -500 Descending Orlando TRACON
Wed 09:44:00 PM 28.2898 -81.4371 139° Southeast  Level Estimated
Wed 09:51:00 PM 28.2898 -81.4371 139° Southeast  Level Estimated
Wed 09:52:00 PM 28.2898 -81.4371 139° Southeast  Level Estimated
Wed 09:53:00 PM 28.2898 -81.4371 139° Southeast  Level Estimated

Login

Don't have an account? Register now (free) for customized features, flight alerts, and more!